createdAt,value
2023-03-19T00:02:17.499Z,11.90
2023-03-19T00:04:47.722Z,9.88
2023-03-19T00:07:16.992Z,7.50
2023-03-19T00:09:45.350Z,9.95
2023-03-19T00:12:13.486Z,9.00
2023-03-19T00:14:42.062Z,8.60
2023-03-19T00:17:10.037Z,8.13
2023-03-19T00:19:37.983Z,9.60
2023-03-19T00:22:07.419Z,5.78
2023-03-19T00:24:35.678Z,8.70
2023-03-19T00:27:03.734Z,12.93
2023-03-19T00:29:31.823Z,9.48
2023-03-19T00:31:59.731Z,11.65
2023-03-19T00:34:28.242Z,5.28
2023-03-19T00:36:57.000Z,8.93
2023-03-19T00:39:26.350Z,7.88
2023-03-19T00:41:54.440Z,14.55
2023-03-19T00:44:22.333Z,8.20
2023-03-19T00:46:50.725Z,5.72
2023-03-19T00:49:18.626Z,6.90
2023-03-19T00:51:46.586Z,8.75
2023-03-19T00:54:15.052Z,5.00
2023-03-19T00:56:44.317Z,6.25
2023-03-19T00:59:12.244Z,8.77
2023-03-19T01:01:40.173Z,5.97
2023-03-19T01:04:08.194Z,6.13
2023-03-19T01:06:36.639Z,8.05
2023-03-19T01:09:05.753Z,8.70
2023-03-19T01:11:33.715Z,5.75
2023-03-19T01:14:03.137Z,11.45
2023-03-19T01:16:31.581Z,10.23
2023-03-19T01:18:59.750Z,7.88
2023-03-19T01:21:30.950Z,8.27
2023-03-19T01:23:59.371Z,6.40
2023-03-19T01:26:28.777Z,6.25
2023-03-19T01:29:05.736Z,9.98
2023-03-19T01:31:34.643Z,6.97
2023-03-19T01:34:35.504Z,9.15
2023-03-19T01:37:09.636Z,10.45
2023-03-19T01:39:38.424Z,6.32
2023-03-19T01:42:10.078Z,4.47
2023-03-19T01:44:53.565Z,9.07
2023-03-19T01:47:43.844Z,7.32
2023-03-19T01:50:24.809Z,8.57
2023-03-19T01:53:03.665Z,7.45
2023-03-19T01:55:46.501Z,5.35
2023-03-19T01:58:41.238Z,6.90
2023-03-19T02:01:31.355Z,10.38
2023-03-19T02:04:01.358Z,7.68
2023-03-19T02:06:34.894Z,7.95
2023-03-19T02:09:04.056Z,8.40
2023-03-19T02:11:32.234Z,7.22
2023-03-19T02:14:00.756Z,7.88
2023-03-19T02:16:30.082Z,9.38
2023-03-19T02:18:59.192Z,12.50
2023-03-19T02:21:27.094Z,7.20
2023-03-19T02:24:01.393Z,8.82
2023-03-19T02:26:51.658Z,9.30
2023-03-19T02:29:19.872Z,9.10
2023-03-19T02:31:48.393Z,10.95
2023-03-19T02:34:37.855Z,8.35
2023-03-19T02:37:12.601Z,8.45
2023-03-19T02:39:48.811Z,7.78
2023-03-19T02:42:20.838Z,9.20
2023-03-19T02:44:49.029Z,10.65
2023-03-19T02:47:17.398Z,9.68
2023-03-19T02:49:45.420Z,10.57
2023-03-19T02:52:13.500Z,9.02
2023-03-19T02:54:41.604Z,10.30
2023-03-19T02:57:09.811Z,8.35
2023-03-19T02:59:39.817Z,8.35
2023-03-19T03:02:08.257Z,7.82
2023-03-19T03:04:37.116Z,6.53
2023-03-19T03:07:05.378Z,5.85
2023-03-19T03:09:33.277Z,8.70
2023-03-19T03:12:01.357Z,7.60
2023-03-19T03:14:29.766Z,10.57
2023-03-19T03:16:59.110Z,6.47
2023-03-19T03:19:27.213Z,10.73
2023-03-19T03:21:55.346Z,6.75
2023-03-19T03:24:24.373Z,9.02
2023-03-19T03:26:52.282Z,6.95
2023-03-19T03:29:21.827Z,9.52
2023-03-19T03:31:49.912Z,8.45
2023-03-19T03:34:19.563Z,5.78
2023-03-19T03:36:47.883Z,6.28
2023-03-19T03:39:16.192Z,5.18
2023-03-19T03:41:44.373Z,6.80
2023-03-19T03:44:12.459Z,7.65
2023-03-19T03:46:43.392Z,10.45
2023-03-19T03:49:11.777Z,6.18
2023-03-19T03:51:41.222Z,8.07
2023-03-19T03:54:09.509Z,6.90
2023-03-19T03:56:37.551Z,7.50
2023-03-19T03:59:05.495Z,6.22
2023-03-19T04:01:33.976Z,5.32
2023-03-19T04:04:02.074Z,9.63
2023-03-19T04:06:30.650Z,6.00
2023-03-19T04:09:15.380Z,7.90
2023-03-19T04:11:43.387Z,8.30
2023-03-19T04:14:11.325Z,4.53
2023-03-19T04:16:40.545Z,6.32
2023-03-19T04:19:08.791Z,8.60
2023-03-19T04:21:36.728Z,7.80
2023-03-19T04:24:05.018Z,7.63
2023-03-19T04:26:34.541Z,7.55
2023-03-19T04:29:02.432Z,8.43
2023-03-19T04:31:30.657Z,6.88
2023-03-19T04:33:58.775Z,5.40
2023-03-19T04:36:26.739Z,7.80
2023-03-19T04:38:54.848Z,6.90
2023-03-19T04:41:23.285Z,10.77
2023-03-19T04:44:07.716Z,10.18
2023-03-19T04:46:36.890Z,6.32
2023-03-19T04:49:04.832Z,5.50
2023-03-19T04:51:33.188Z,7.18
2023-03-19T04:54:01.105Z,4.97
2023-03-19T04:56:29.218Z,6.10
2023-03-19T04:58:57.946Z,14.18
2023-03-19T05:01:27.351Z,5.70
2023-03-19T05:04:05.158Z,5.68
2023-03-19T05:06:36.407Z,6.70
2023-03-19T05:09:05.075Z,7.07
2023-03-19T05:11:33.247Z,5.90
2023-03-19T05:14:05.616Z,8.27
2023-03-19T05:16:50.208Z,7.13
2023-03-19T05:19:18.180Z,7.32
2023-03-19T05:21:46.231Z,6.75
2023-03-19T05:24:15.688Z,8.55
2023-03-19T05:26:44.663Z,8.45
2023-03-19T05:29:30.320Z,9.57
2023-03-19T05:32:20.461Z,5.53
2023-03-19T05:34:48.730Z,6.60
2023-03-19T05:37:18.352Z,8.18
2023-03-19T05:39:52.306Z,5.78
2023-03-19T05:42:20.311Z,10.60
2023-03-19T05:44:48.942Z,5.88
2023-03-19T05:47:28.188Z,6.30
2023-03-19T05:49:58.324Z,10.93
2023-03-19T05:52:26.332Z,7.45
2023-03-19T05:54:57.746Z,5.78
2023-03-19T05:57:39.490Z,10.18
2023-03-19T06:00:27.885Z,6.38
2023-03-19T06:02:57.303Z,7.63
2023-03-19T06:05:43.988Z,11.23
2023-03-19T06:08:31.861Z,6.60
2023-03-19T06:11:09.737Z,13.95
2023-03-19T06:13:39.217Z,7.50
2023-03-19T06:16:11.473Z,10.13
2023-03-19T06:18:50.198Z,11.25
2023-03-19T06:21:18.238Z,6.22
2023-03-19T06:23:46.185Z,13.00
2023-03-19T06:26:18.052Z,6.32
2023-03-19T06:28:52.302Z,6.03
2023-03-19T06:31:21.415Z,7.38
2023-03-19T06:34:00.655Z,9.20
2023-03-19T06:36:38.316Z,13.35
2023-03-19T06:39:06.928Z,8.55
2023-03-19T06:41:34.852Z,7.25
2023-03-19T06:44:12.994Z,11.50
2023-03-19T06:46:40.933Z,11.30
2023-03-19T06:49:10.277Z,9.60
2023-03-19T06:51:38.240Z,6.95
2023-03-19T06:54:06.225Z,6.97
2023-03-19T06:56:34.229Z,6.38
2023-03-19T06:59:02.309Z,8.50
2023-03-19T07:01:30.319Z,8.32
2023-03-19T07:03:58.303Z,7.68
2023-03-19T07:06:27.587Z,10.05
2023-03-19T07:08:56.243Z,8.32
2023-03-19T07:11:24.157Z,8.38
2023-03-19T07:13:52.077Z,11.18
2023-03-19T07:16:20.044Z,6.28
2023-03-19T07:18:48.014Z,7.57
2023-03-19T07:21:15.959Z,8.65
2023-03-19T07:23:46.918Z,9.40
2023-03-19T07:26:15.382Z,10.23
2023-03-19T07:28:43.244Z,5.82
2023-03-19T07:31:11.178Z,7.00
2023-03-19T07:33:39.538Z,6.35
2023-03-19T07:36:08.493Z,6.20
2023-03-19T07:38:36.458Z,6.38
2023-03-19T07:41:06.094Z,7.15
2023-03-19T07:43:34.041Z,5.65
2023-03-19T07:46:03.084Z,6.93
2023-03-19T07:48:31.108Z,6.50
2023-03-19T07:50:59.078Z,12.43
2023-03-19T07:53:27.223Z,9.75
2023-03-19T07:55:55.285Z,6.60
2023-03-19T07:58:24.686Z,10.02
2023-03-19T08:00:52.599Z,8.32
2023-03-19T08:03:20.684Z,11.95
2023-03-19T08:05:50.001Z,6.82
2023-03-19T08:08:19.209Z,10.05
2023-03-19T08:10:48.025Z,7.95
2023-03-19T08:13:16.066Z,8.88
2023-03-19T08:15:45.469Z,8.90
2023-03-19T08:18:13.791Z,7.32
2023-03-19T08:20:41.711Z,8.25
2023-03-19T08:23:09.997Z,6.28
2023-03-19T08:25:37.882Z,6.97
2023-03-19T08:28:06.057Z,9.60
2023-03-19T08:30:34.459Z,6.00
2023-03-19T08:33:04.819Z,6.95
2023-03-19T08:35:32.805Z,12.88
2023-03-19T08:38:00.739Z,9.30
2023-03-19T08:40:28.686Z,8.65
2023-03-19T08:42:56.938Z,6.82
2023-03-19T08:45:24.912Z,6.35
2023-03-19T08:47:52.822Z,6.57
2023-03-19T08:50:22.404Z,6.82
2023-03-19T08:52:50.894Z,11.13
2023-03-19T08:55:19.079Z,8.07
2023-03-19T08:57:47.060Z,8.68
2023-03-19T09:00:16.446Z,11.23
2023-03-19T09:02:44.331Z,8.63
2023-03-19T09:05:12.276Z,10.13
2023-03-19T09:07:41.573Z,10.90
2023-03-19T09:10:10.129Z,7.22
2023-03-19T09:12:38.046Z,12.80
2023-03-19T09:15:07.112Z,11.13
2023-03-19T09:17:35.051Z,10.60
2023-03-19T09:20:06.118Z,11.95
2023-03-19T09:22:34.777Z,9.77
2023-03-19T09:25:04.228Z,12.13
2023-03-19T09:27:32.571Z,10.38
2023-03-19T09:30:00.780Z,8.80
2023-03-19T09:32:28.691Z,8.65
2023-03-19T09:34:56.607Z,7.80
2023-03-19T09:37:24.564Z,8.30
2023-03-19T09:39:52.432Z,10.07
2023-03-19T09:42:37.528Z,6.65
2023-03-19T09:45:06.768Z,5.93
2023-03-19T09:47:37.423Z,7.47
2023-03-19T09:50:12.533Z,8.98
2023-03-19T09:52:47.064Z,7.43
2023-03-19T09:55:26.204Z,7.15
2023-03-19T09:57:57.852Z,7.15
2023-03-19T10:00:28.232Z,5.95
2023-03-19T10:03:03.867Z,7.85
2023-03-19T10:05:43.567Z,8.18
2023-03-19T10:08:29.240Z,6.22
2023-03-19T10:11:12.350Z,8.55
2023-03-19T10:13:53.941Z,7.20
2023-03-19T10:16:25.393Z,5.38
2023-03-19T10:18:57.205Z,7.90
2023-03-19T10:21:32.343Z,9.18
2023-03-19T10:24:04.725Z,9.85
2023-03-19T10:26:35.874Z,7.40
2023-03-19T10:29:11.284Z,8.45
2023-03-19T10:31:45.446Z,5.78
2023-03-19T10:34:29.440Z,6.55
2023-03-19T10:37:01.258Z,6.82
2023-03-19T10:39:29.437Z,6.90
2023-03-19T10:42:09.061Z,7.32
2023-03-19T10:44:43.413Z,9.80
2023-03-19T10:47:14.040Z,6.07
2023-03-19T10:49:42.427Z,11.07
2023-03-19T10:52:21.417Z,8.55
2023-03-19T10:54:49.369Z,6.88
2023-03-19T10:57:26.657Z,9.82
2023-03-19T10:59:56.398Z,5.90
2023-03-19T11:02:31.065Z,8.30
2023-03-19T11:05:23.205Z,8.82
2023-03-19T11:07:52.557Z,8.40
2023-03-19T11:10:21.729Z,11.27
2023-03-19T11:12:55.692Z,7.55
2023-03-19T11:15:30.031Z,9.95
2023-03-19T11:18:00.001Z,9.18
2023-03-19T11:20:34.947Z,9.98
2023-03-19T11:23:06.240Z,7.55
2023-03-19T11:25:38.931Z,7.95
2023-03-19T11:28:09.744Z,7.15
2023-03-19T11:30:50.851Z,9.65
2023-03-19T11:33:36.442Z,6.90
2023-03-19T11:36:13.816Z,10.88
2023-03-19T11:38:52.774Z,10.52
2023-03-19T11:41:31.623Z,11.02
2023-03-19T11:44:02.767Z,13.02
2023-03-19T11:46:42.799Z,6.43
2023-03-19T11:49:32.795Z,10.30
2023-03-19T11:52:08.283Z,8.48
2023-03-19T11:54:45.201Z,7.75
2023-03-19T11:57:19.310Z,7.32
2023-03-19T12:00:08.158Z,10.00
2023-03-19T12:02:57.086Z,9.15
2023-03-19T12:05:33.103Z,11.25
2023-03-19T12:08:20.540Z,9.32
2023-03-19T12:11:05.128Z,8.95
2023-03-19T12:13:48.723Z,9.75
2023-03-19T12:16:25.168Z,9.23
2023-03-19T12:19:16.922Z,9.10
2023-03-19T12:21:58.476Z,8.27
2023-03-19T12:24:41.290Z,8.63
2023-03-19T12:27:23.943Z,6.60
2023-03-19T12:29:59.853Z,9.40
2023-03-19T12:32:42.192Z,7.30
2023-03-19T12:35:16.468Z,7.57
2023-03-19T12:37:54.753Z,9.90
2023-03-19T12:40:29.354Z,7.65
2023-03-19T12:42:59.789Z,8.38
2023-03-19T12:45:32.619Z,7.50
2023-03-19T12:48:08.501Z,6.35
2023-03-19T12:50:43.019Z,7.13
2023-03-19T12:53:21.282Z,6.25
2023-03-19T12:55:55.760Z,4.70
2023-03-19T12:58:31.375Z,4.75
2023-03-19T13:01:07.430Z,3.67
2023-03-19T13:03:42.977Z,4.85
2023-03-19T13:06:20.409Z,6.68
2023-03-19T13:08:53.778Z,4.25
2023-03-19T13:11:32.582Z,4.97
2023-03-19T13:14:05.290Z,6.60
2023-03-19T13:16:40.893Z,3.33
2023-03-19T13:19:21.444Z,5.18
2023-03-19T13:21:54.454Z,3.90
2023-03-19T13:24:26.483Z,4.25
2023-03-19T13:26:56.504Z,3.63
2023-03-19T13:29:27.063Z,4.30
2023-03-19T13:32:01.621Z,5.10
2023-03-19T13:34:33.029Z,5.88
2023-03-19T13:37:09.050Z,6.32
2023-03-19T13:39:38.107Z,4.18
2023-03-19T13:42:23.820Z,2.83
2023-03-19T13:44:55.138Z,4.05
2023-03-19T13:47:40.694Z,4.63
2023-03-19T13:50:27.348Z,3.53
2023-03-19T13:53:21.409Z,3.30
2023-03-19T13:55:55.863Z,2.72
2023-03-19T13:58:44.375Z,3.72
2023-03-19T14:01:34.876Z,4.57
2023-03-19T14:04:06.083Z,5.40
2023-03-19T14:06:38.077Z,5.07
2023-03-19T14:09:07.933Z,3.35
2023-03-19T14:11:38.821Z,4.13
2023-03-19T14:14:14.410Z,5.03
2023-03-19T14:16:46.538Z,5.18
2023-03-19T14:19:19.937Z,3.97
2023-03-19T14:22:11.060Z,3.47
2023-03-19T14:24:56.391Z,5.72
2023-03-19T14:27:32.739Z,3.33
2023-03-19T14:30:09.781Z,4.95
2023-03-19T14:32:40.913Z,4.47
2023-03-19T14:35:34.031Z,4.10
2023-03-19T14:38:03.174Z,4.35
2023-03-19T14:40:39.750Z,4.35
2023-03-19T14:43:18.847Z,5.88
2023-03-19T14:45:54.341Z,5.53
2023-03-19T14:48:37.375Z,6.13
2023-03-19T14:51:40.321Z,5.70
2023-03-19T14:54:24.981Z,3.15
2023-03-19T14:56:52.963Z,3.55
2023-03-19T14:59:21.841Z,4.40
2023-03-19T15:01:53.197Z,5.22
2023-03-19T15:04:40.158Z,4.38
2023-03-19T15:07:21.192Z,3.80
2023-03-19T15:10:14.319Z,4.38
2023-03-19T15:13:06.241Z,2.80
2023-03-19T15:16:12.944Z,3.42
2023-03-19T15:18:40.914Z,4.53
2023-03-19T15:21:09.445Z,4.25
2023-03-19T15:23:40.383Z,5.30
2023-03-19T15:26:11.673Z,3.92
2023-03-19T15:28:49.510Z,6.22
2023-03-19T15:32:07.483Z,4.30
2023-03-19T15:34:42.229Z,6.43
2023-03-19T15:37:14.163Z,8.38
2023-03-19T15:39:49.994Z,3.55
2023-03-19T15:42:20.461Z,5.10
2023-03-19T15:44:51.386Z,3.05
2023-03-19T15:47:22.969Z,4.18
2023-03-19T15:49:57.772Z,5.43
2023-03-19T15:52:27.121Z,4.03
2023-03-19T15:54:57.307Z,4.97
2023-03-19T15:57:26.009Z,6.30
2023-03-19T15:59:55.470Z,5.82
2023-03-19T16:02:27.974Z,7.72
2023-03-19T16:05:20.473Z,5.40
2023-03-19T16:07:45.242Z,4.50
2023-03-19T16:10:35.746Z,3.80
2023-03-19T16:13:05.777Z,4.32
2023-03-19T16:15:43.648Z,2.47
2023-03-19T16:18:24.597Z,4.65
2023-03-19T16:21:02.729Z,2.78
2023-03-19T16:23:33.215Z,4.53
2023-03-19T16:26:13.411Z,2.50
2023-03-19T16:28:45.310Z,4.90
2023-03-19T16:31:25.941Z,4.07
2023-03-19T16:33:54.396Z,3.97
2023-03-19T16:36:23.212Z,3.20
2023-03-19T16:38:57.272Z,4.88
2023-03-19T16:41:32.346Z,9.88
2023-03-19T16:44:14.309Z,5.15
2023-03-19T16:46:42.525Z,3.20
2023-03-19T16:49:10.703Z,2.80
2023-03-19T16:51:39.312Z,2.95
2023-03-19T16:54:07.458Z,2.45
2023-03-19T16:56:37.475Z,1.85
2023-03-19T16:59:05.700Z,3.13
2023-03-19T17:01:33.641Z,2.00
2023-03-19T17:04:01.647Z,1.02
2023-03-19T17:06:34.388Z,2.17
2023-03-19T17:09:02.330Z,1.10
2023-03-19T17:11:35.123Z,0.57
2023-03-19T17:14:06.263Z,0.80
2023-03-19T17:16:34.967Z,1.92
2023-03-19T17:19:04.343Z,0.88
2023-03-19T17:21:34.135Z,3.15
2023-03-19T17:24:17.711Z,3.10
2023-03-19T17:26:45.974Z,0.63
2023-03-19T17:29:15.392Z,0.80
2023-03-19T17:31:43.790Z,0.57
2023-03-19T17:34:14.822Z,1.52
2023-03-19T17:36:45.710Z,2.83
2023-03-19T17:39:13.608Z,1.10
2023-03-19T17:41:41.616Z,2.50
2023-03-19T17:44:10.082Z,4.38
2023-03-19T17:46:41.501Z,3.30
2023-03-19T17:49:16.652Z,5.88
2023-03-19T17:51:44.580Z,2.50
2023-03-19T17:54:14.192Z,3.60
2023-03-19T17:56:43.501Z,3.63
2023-03-19T17:59:11.475Z,6.28
2023-03-19T18:01:43.068Z,2.55
2023-03-19T18:04:14.275Z,5.47
2023-03-19T18:06:44.365Z,6.22
2023-03-19T18:09:19.719Z,4.47
2023-03-19T18:11:47.636Z,5.90
2023-03-19T18:14:15.598Z,6.38
2023-03-19T18:16:45.080Z,13.75
2023-03-19T18:19:20.448Z,8.38
2023-03-19T18:21:48.356Z,4.60
2023-03-19T18:24:16.270Z,2.38
2023-03-19T18:26:44.157Z,2.55
2023-03-19T18:29:12.068Z,4.13
2023-03-19T18:31:41.473Z,1.75
2023-03-19T18:34:14.227Z,2.97
2023-03-19T18:36:42.862Z,5.45
2023-03-19T18:39:13.604Z,5.30
2023-03-19T18:41:42.068Z,2.33
2023-03-19T18:44:11.015Z,3.05
2023-03-19T18:46:40.661Z,1.90
2023-03-19T18:49:22.434Z,1.10
2023-03-19T18:52:02.180Z,1.30
2023-03-19T18:54:32.009Z,1.15
2023-03-19T18:57:00.688Z,1.80
2023-03-19T18:59:32.617Z,1.08
2023-03-19T19:02:03.043Z,2.58
2023-03-19T19:04:32.384Z,2.97
2023-03-19T19:07:01.687Z,2.30
2023-03-19T19:09:29.738Z,4.47
2023-03-19T19:12:01.054Z,3.72
2023-03-19T19:14:29.444Z,3.13
2023-03-19T19:16:58.572Z,1.90
2023-03-19T19:19:28.631Z,3.38
2023-03-19T19:21:58.014Z,5.15
2023-03-19T19:24:25.901Z,6.70
2023-03-19T19:26:54.380Z,5.10
2023-03-19T19:29:25.195Z,5.90
2023-03-19T19:31:54.329Z,7.72
2023-03-19T19:34:22.298Z,6.60
2023-03-19T19:36:50.958Z,5.80
2023-03-19T19:39:20.397Z,8.93
2023-03-19T19:41:49.113Z,4.93
2023-03-19T19:44:19.966Z,7.32
2023-03-19T19:46:47.948Z,7.70
2023-03-19T19:49:16.405Z,6.78
2023-03-19T19:51:44.294Z,8.95
2023-03-19T19:54:12.222Z,3.38
2023-03-19T19:56:41.646Z,6.97
2023-03-19T19:59:15.443Z,5.20
2023-03-19T20:01:43.614Z,4.22
2023-03-19T20:04:15.106Z,5.10
2023-03-19T20:06:43.066Z,4.10
2023-03-19T20:09:11.259Z,3.97
2023-03-19T20:11:39.600Z,2.67
2023-03-19T20:14:14.443Z,1.33
2023-03-19T20:16:42.433Z,1.25
2023-03-19T20:19:18.817Z,0.98
2023-03-19T20:21:46.795Z,1.45
2023-03-19T20:24:14.700Z,1.35
2023-03-19T20:26:43.490Z,2.38
2023-03-19T20:29:15.956Z,6.00
2023-03-19T20:31:47.062Z,8.95
2023-03-19T20:34:28.756Z,5.55
2023-03-19T20:37:04.193Z,6.90
2023-03-19T20:39:32.071Z,5.28
2023-03-19T20:42:00.042Z,7.32
2023-03-19T20:44:29.827Z,6.18
2023-03-19T20:46:59.045Z,7.32
2023-03-19T20:49:27.045Z,4.90
2023-03-19T20:51:54.973Z,4.82
2023-03-19T20:54:23.723Z,5.85
2023-03-19T20:56:52.901Z,3.58
2023-03-19T20:59:20.806Z,4.03
2023-03-19T21:01:50.397Z,5.95
2023-03-19T21:04:21.039Z,4.65
2023-03-19T21:06:53.469Z,5.30
2023-03-19T21:09:22.675Z,6.40
2023-03-19T21:11:52.137Z,5.13
2023-03-19T21:14:23.251Z,3.75
2023-03-19T21:16:52.523Z,4.72
2023-03-19T21:19:20.475Z,4.28
2023-03-19T21:21:48.411Z,4.03
2023-03-19T21:24:20.565Z,2.97
2023-03-19T21:26:48.792Z,3.28
2023-03-19T21:29:22.538Z,3.88
2023-03-19T21:31:54.210Z,3.80
2023-03-19T21:34:22.179Z,2.40
2023-03-19T21:36:50.108Z,3.88
2023-03-19T21:39:18.578Z,2.78
2023-03-19T21:41:47.609Z,3.20
2023-03-19T21:44:19.592Z,3.30
2023-03-19T21:46:48.923Z,2.88
2023-03-19T21:49:18.258Z,2.22
2023-03-19T21:51:46.818Z,1.92
2023-03-19T21:54:15.773Z,2.75
2023-03-19T21:56:46.023Z,2.70
2023-03-19T21:59:15.718Z,3.72
2023-03-19T22:01:43.961Z,3.35
2023-03-19T22:04:12.031Z,4.57
2023-03-19T22:06:42.381Z,7.10
2023-03-19T22:09:10.574Z,4.15
2023-03-19T22:11:41.658Z,4.72
2023-03-19T22:14:17.795Z,3.40
2023-03-19T22:16:46.443Z,4.25
2023-03-19T22:19:15.511Z,4.57
2023-03-19T22:21:44.907Z,8.40
2023-03-19T22:24:12.943Z,14.55
2023-03-19T22:26:42.795Z,10.27
2023-03-19T22:29:15.831Z,6.40
2023-03-19T22:31:44.151Z,2.47
2023-03-19T22:34:15.448Z,2.30
2023-03-19T22:36:45.298Z,2.08
2023-03-19T22:39:13.740Z,2.67
2023-03-19T22:41:45.553Z,1.77
2023-03-19T22:44:21.011Z,2.47
2023-03-19T22:46:49.072Z,2.25
2023-03-19T22:49:18.860Z,2.75
2023-03-19T22:51:48.282Z,5.32
2023-03-19T22:54:16.388Z,5.82
2023-03-19T22:56:44.479Z,1.10
2023-03-19T22:59:12.415Z,1.50
2023-03-19T23:01:43.218Z,2.97
2023-03-19T23:04:19.878Z,1.20
2023-03-19T23:06:49.702Z,1.65
2023-03-19T23:09:19.322Z,1.08
2023-03-19T23:11:48.318Z,1.10
2023-03-19T23:14:28.620Z,1.13
2023-03-19T23:19:29.141Z,1.20
2023-03-19T23:21:59.684Z,0.90
2023-03-19T23:24:30.208Z,1.10
2023-03-19T23:26:59.820Z,1.20
2023-03-19T23:29:31.209Z,0.60
2023-03-19T23:31:59.544Z,1.63
2023-03-19T23:34:28.513Z,1.10
2023-03-19T23:36:58.097Z,1.00
2023-03-19T23:39:26.704Z,1.15
2023-03-19T23:41:58.184Z,1.20
2023-03-19T23:44:29.062Z,0.70
2023-03-19T23:47:00.949Z,0.75
2023-03-19T23:49:30.803Z,0.70
2023-03-19T23:52:00.752Z,1.10
2023-03-19T23:54:31.586Z,1.00
2023-03-19T23:57:02.108Z,1.25
2023-03-19T23:59:33.926Z,0.70
